createdAt,value
2024-02-09T00:00:50.966Z,474.58
2024-02-09T00:01:54.159Z,478.73
2024-02-09T00:02:56.328Z,405.73
2024-02-09T00:03:58.315Z,388.55
2024-02-09T00:05:07.035Z,339.17
2024-02-09T00:06:09.099Z,426.08
2024-02-09T00:07:11.115Z,483.70
2024-02-09T00:08:14.956Z,392.70
2024-02-09T00:09:17.012Z,286.65
2024-02-09T00:10:20.146Z,456.25
2024-02-09T00:11:23.075Z,475.17
2024-02-09T00:12:25.422Z,483.60
2024-02-09T00:13:31.713Z,488.63
2024-02-09T00:14:33.741Z,479.42
2024-02-09T00:15:36.060Z,385.02
2024-02-09T00:16:38.139Z,465.05
2024-02-09T00:17:40.040Z,415.70
2024-02-09T00:18:42.256Z,472.35
2024-02-09T00:19:44.689Z,437.75
2024-02-09T00:20:48.428Z,511.23
2024-02-09T00:21:50.341Z,487.88
2024-02-09T00:22:52.275Z,493.60
2024-02-09T00:23:55.713Z,246.65
2024-02-09T00:24:57.613Z,445.23
2024-02-09T00:26:01.886Z,359.38
2024-02-09T00:27:05.998Z,509.25
2024-02-09T00:28:12.956Z,522.42
2024-02-09T00:29:15.387Z,409.25
2024-02-09T00:30:17.343Z,476.75
2024-02-09T00:31:22.497Z,298.60
2024-02-09T00:32:24.745Z,455.77
2024-02-09T00:33:27.126Z,391.75
2024-02-09T00:34:30.183Z,431.23
2024-02-09T00:35:34.748Z,374.27
2024-02-09T00:36:37.372Z,389.85
2024-02-09T00:37:39.824Z,416.58
2024-02-09T00:38:42.547Z,293.10
2024-02-09T00:39:44.510Z,274.08
2024-02-09T00:40:46.479Z,399.30
2024-02-09T00:41:49.151Z,373.70
2024-02-09T00:42:54.211Z,319.73
2024-02-09T00:43:56.584Z,364.95
2024-02-09T00:44:58.513Z,395.13
2024-02-09T00:46:03.180Z,253.53
2024-02-09T00:47:05.455Z,228.93
2024-02-09T00:48:08.598Z,302.45
2024-02-09T00:49:11.972Z,323.60
2024-02-09T00:50:19.019Z,324.45
2024-02-09T00:51:20.993Z,355.95
2024-02-09T00:52:22.975Z,427.90
2024-02-09T00:53:25.946Z,307.02
2024-02-09T00:54:27.874Z,283.30
2024-02-09T00:55:30.978Z,247.07
2024-02-09T00:56:33.847Z,355.77
2024-02-09T00:57:35.819Z,377.45
2024-02-09T00:58:37.854Z,385.70
2024-02-09T00:59:44.442Z,296.83
2024-02-09T01:00:46.420Z,301.80
2024-02-09T01:02:01.503Z,352.50
2024-02-09T01:03:08.789Z,129.55
2024-02-09T01:04:14.164Z,280.07
2024-02-09T01:05:16.154Z,288.92
2024-02-09T01:06:22.629Z,432.83
2024-02-09T01:07:24.588Z,366.80
2024-02-09T01:08:30.290Z,242.10
2024-02-09T01:09:35.864Z,263.80
2024-02-09T01:10:37.943Z,256.02
2024-02-09T01:11:40.021Z,296.33
2024-02-09T01:13:00.438Z,194.30
2024-02-09T01:14:21.403Z,214.45
2024-02-09T01:15:42.964Z,283.90
2024-02-09T01:17:03.421Z,263.63
2024-02-09T01:18:24.006Z,368.52
2024-02-09T01:19:44.809Z,362.70
2024-02-09T01:21:05.495Z,304.85
2024-02-09T01:22:26.039Z,445.45
2024-02-09T01:23:46.695Z,372.05
2024-02-09T01:25:07.382Z,460.90
2024-02-09T01:26:28.145Z,168.68
2024-02-09T01:27:48.591Z,411.42
2024-02-09T01:29:09.186Z,351.40
2024-02-09T01:30:29.899Z,212.30
2024-02-09T01:31:50.222Z,273.23
2024-02-09T01:33:11.214Z,410.47
2024-02-09T01:34:31.822Z,326.27
2024-02-09T01:35:52.224Z,412.42
2024-02-09T01:37:12.741Z,135.77
2024-02-09T01:38:33.325Z,357.15
2024-02-09T01:39:53.575Z,271.55
2024-02-09T01:41:14.348Z,96.03
2024-02-09T01:42:34.697Z,226.57
2024-02-09T01:43:55.077Z,229.15
2024-02-09T01:45:15.566Z,229.40
2024-02-09T01:46:36.358Z,125.45
2024-02-09T01:47:56.895Z,184.32
2024-02-09T01:49:17.905Z,142.07
2024-02-09T01:50:38.873Z,323.00
2024-02-09T01:52:00.123Z,173.52
2024-02-09T01:53:20.654Z,290.33
2024-02-09T01:54:41.228Z,107.53
2024-02-09T01:56:02.019Z,303.73
2024-02-09T01:57:24.192Z,353.17
2024-02-09T01:58:45.630Z,235.95
2024-02-09T02:00:10.461Z,299.33
2024-02-09T02:01:35.587Z,178.07
2024-02-09T02:02:58.233Z,199.63
2024-02-09T02:04:19.264Z,93.43
2024-02-09T02:05:40.292Z,203.13
2024-02-09T02:07:00.985Z,37.08
2024-02-09T02:08:21.595Z,76.47
2024-02-09T02:09:42.372Z,60.47
2024-02-09T02:11:02.869Z,56.53
2024-02-09T02:12:24.020Z,79.68
2024-02-09T02:13:44.640Z,119.35
2024-02-09T02:15:05.221Z,76.47
2024-02-09T02:16:25.647Z,231.15
2024-02-09T02:17:46.480Z,205.85
2024-02-09T02:19:08.679Z,191.48
2024-02-09T02:20:29.405Z,124.97
2024-02-09T02:21:53.935Z,97.63
2024-02-09T02:23:26.554Z,139.90
2024-02-09T02:24:50.119Z,120.50
2024-02-09T02:26:10.737Z,170.25
2024-02-09T02:27:32.435Z,117.28
2024-02-09T02:28:53.121Z,183.40
2024-02-09T02:30:13.563Z,283.25
2024-02-09T02:31:34.430Z,175.20
2024-02-09T02:32:55.250Z,416.52
2024-02-09T02:34:15.806Z,105.70
2024-02-09T02:35:36.335Z,229.57
2024-02-09T02:36:57.085Z,251.70
2024-02-09T02:38:17.668Z,150.18
2024-02-09T02:39:38.204Z,337.73
2024-02-09T02:40:58.988Z,103.27
2024-02-09T02:42:00.909Z,183.93
2024-02-09T02:43:02.861Z,270.80
2024-02-09T02:44:05.594Z,475.92
2024-02-09T02:45:13.924Z,300.52
2024-02-09T02:46:16.505Z,74.50
2024-02-09T02:47:19.155Z,186.48
2024-02-09T02:48:39.807Z,204.00
2024-02-09T02:50:00.674Z,92.50
2024-02-09T02:51:21.393Z,142.38
2024-02-09T02:52:41.924Z,229.00
2024-02-09T02:54:02.393Z,205.90
2024-02-09T02:55:22.927Z,272.98
2024-02-09T02:56:43.367Z,300.95
2024-02-09T02:58:03.913Z,267.83
2024-02-09T02:59:24.213Z,186.43
2024-02-09T03:00:45.114Z,246.80
2024-02-09T03:02:05.708Z,303.23
2024-02-09T03:03:26.143Z,162.75
2024-02-09T03:04:29.021Z,75.68
2024-02-09T03:05:31.223Z,150.90
2024-02-09T03:06:47.457Z,326.02
2024-02-09T03:08:43.330Z,56.93
2024-02-09T03:09:19.943Z,94.30
2024-02-09T03:10:22.245Z,162.10
2024-02-09T03:11:25.181Z,184.98
2024-02-09T03:12:28.909Z,188.75
2024-02-09T03:13:30.906Z,125.38
2024-02-09T03:14:33.121Z,204.73
2024-02-09T03:15:36.034Z,284.23
2024-02-09T03:16:38.018Z,214.32
2024-02-09T03:17:41.077Z,251.23
2024-02-09T03:18:45.977Z,148.55
2024-02-09T03:19:48.213Z,184.15
2024-02-09T03:20:50.238Z,193.27
2024-02-09T03:21:55.479Z,135.38
2024-02-09T03:22:57.614Z,172.80
2024-02-09T03:23:59.652Z,213.47
2024-02-09T03:25:05.780Z,222.02
2024-02-09T03:26:07.740Z,111.18
2024-02-09T03:27:09.724Z,90.78
2024-02-09T03:28:11.659Z,145.25
2024-02-09T03:29:13.624Z,280.92
2024-02-09T03:30:18.060Z,225.02
2024-02-09T03:31:20.757Z,96.60
2024-02-09T03:32:22.897Z,113.43
2024-02-09T03:33:24.895Z,140.43
2024-02-09T03:34:27.510Z,177.85
2024-02-09T03:35:33.253Z,194.63
2024-02-09T03:36:35.860Z,219.73
2024-02-09T03:37:37.886Z,132.90
2024-02-09T03:38:40.283Z,215.60
2024-02-09T03:39:44.109Z,111.22
2024-02-09T03:40:46.309Z,435.83
2024-02-09T03:41:48.343Z,66.38
2024-02-09T03:42:50.597Z,156.10
2024-02-09T03:43:52.524Z,176.60
2024-02-09T03:44:57.811Z,74.78
2024-02-09T03:46:01.667Z,134.20
2024-02-09T03:47:03.830Z,185.50
2024-02-09T03:48:06.266Z,90.40
2024-02-09T03:49:13.056Z,113.05
2024-02-09T03:50:16.409Z,302.00
2024-02-09T03:51:18.326Z,102.60
2024-02-09T03:52:21.702Z,248.77
2024-02-09T03:53:23.635Z,236.60
2024-02-09T03:54:25.537Z,111.13
2024-02-09T03:55:27.448Z,161.65
2024-02-09T03:56:29.459Z,35.47
2024-02-09T03:57:32.968Z,117.95
2024-02-09T03:58:35.079Z,143.50
2024-02-09T03:59:37.953Z,206.40
2024-02-09T04:00:39.940Z,141.15
2024-02-09T04:01:42.697Z,274.98
2024-02-09T04:02:47.608Z,111.97
2024-02-09T04:03:50.012Z,126.65
2024-02-09T04:04:52.088Z,200.98
2024-02-09T04:05:56.255Z,131.57
2024-02-09T04:06:59.826Z,152.27
2024-02-09T04:08:04.381Z,90.03
2024-02-09T04:09:30.686Z,101.90
2024-02-09T04:10:39.699Z,206.43
2024-02-09T04:11:45.935Z,134.73
2024-02-09T04:12:47.931Z,139.85
2024-02-09T04:13:52.939Z,110.72
2024-02-09T04:14:54.833Z,56.95
2024-02-09T04:15:58.664Z,117.28
2024-02-09T04:17:00.650Z,118.60
2024-02-09T04:18:04.801Z,254.63
2024-02-09T04:19:08.832Z,41.08
2024-02-09T04:20:12.512Z,71.65
2024-02-09T04:21:18.251Z,162.77
2024-02-09T04:22:20.318Z,234.00
2024-02-09T04:23:22.282Z,155.20
2024-02-09T04:24:25.080Z,82.30
2024-02-09T04:25:27.177Z,137.02
2024-02-09T04:26:29.101Z,132.65
2024-02-09T04:27:31.038Z,66.38
2024-02-09T04:28:32.933Z,56.97
2024-02-09T04:29:34.871Z,53.95
2024-02-09T04:30:36.875Z,119.90
2024-02-09T04:31:42.868Z,302.15
2024-02-09T04:32:44.981Z,40.20
2024-02-09T04:33:46.964Z,19.98
2024-02-09T04:34:49.021Z,96.47
2024-02-09T04:35:50.999Z,114.82
2024-02-09T04:36:54.523Z,138.77
2024-02-09T04:37:56.422Z,65.03
2024-02-09T04:38:58.401Z,163.20
2024-02-09T04:40:00.446Z,128.57
2024-02-09T04:41:02.407Z,54.50
2024-02-09T04:42:04.663Z,57.33
2024-02-09T04:43:07.371Z,53.83
2024-02-09T04:44:09.571Z,44.42
2024-02-09T04:45:11.649Z,66.65
2024-02-09T04:46:24.072Z,61.28
2024-02-09T04:47:26.292Z,89.75
2024-02-09T04:48:28.502Z,42.88
2024-02-09T04:49:30.512Z,30.37
2024-02-09T04:50:32.454Z,52.03
2024-02-09T04:51:38.809Z,39.28
2024-02-09T04:52:40.901Z,36.80
2024-02-09T04:53:42.959Z,43.15
2024-02-09T04:54:44.912Z,32.67
2024-02-09T04:55:49.371Z,47.50
2024-02-09T04:56:51.491Z,49.45
2024-02-09T04:57:53.516Z,24.03
2024-02-09T04:58:55.601Z,108.50
2024-02-09T04:59:57.576Z,34.00
2024-02-09T05:01:01.354Z,30.42
2024-02-09T05:02:03.513Z,42.50
2024-02-09T05:03:05.806Z,70.85
2024-02-09T05:04:11.246Z,83.93
2024-02-09T05:05:13.748Z,67.68
2024-02-09T05:06:15.782Z,23.95
2024-02-09T05:07:17.847Z,21.83
2024-02-09T05:08:19.778Z,27.55
2024-02-09T05:09:25.102Z,53.05
2024-02-09T05:10:27.280Z,72.95
2024-02-09T05:11:30.884Z,18.23
2024-02-09T05:12:34.286Z,63.97
2024-02-09T05:13:38.878Z,45.83
2024-02-09T05:14:40.923Z,71.13
2024-02-09T05:15:42.847Z,38.08
2024-02-09T05:16:45.008Z,50.60
2024-02-09T05:17:47.207Z,97.30
2024-02-09T05:18:49.407Z,71.43
2024-02-09T05:19:54.403Z,55.72
2024-02-09T05:20:59.014Z,94.20
2024-02-09T05:22:01.034Z,76.40
2024-02-09T05:23:04.531Z,57.17
2024-02-09T05:24:07.252Z,60.13
2024-02-09T05:25:09.338Z,32.35
2024-02-09T05:26:12.563Z,77.47
2024-02-09T05:27:14.547Z,107.20
2024-02-09T05:28:16.701Z,64.55
2024-02-09T05:29:19.049Z,103.70
2024-02-09T05:30:20.995Z,82.45
2024-02-09T05:31:29.873Z,90.70
2024-02-09T05:32:33.693Z,135.38
2024-02-09T05:33:38.535Z,37.25
2024-02-09T05:34:47.545Z,17.95
2024-02-09T05:35:52.944Z,35.30
2024-02-09T05:36:55.605Z,86.15
2024-02-09T05:37:57.617Z,55.72
2024-02-09T05:39:00.631Z,73.90
2024-02-09T05:40:03.182Z,42.90
2024-02-09T05:41:05.187Z,101.93
2024-02-09T05:42:07.341Z,99.10
2024-02-09T05:43:09.424Z,239.68
2024-02-09T05:44:13.726Z,120.63
2024-02-09T05:45:15.826Z,50.65
2024-02-09T05:46:18.003Z,104.40
2024-02-09T05:47:20.213Z,86.38
2024-02-09T05:48:22.845Z,93.60
2024-02-09T05:49:24.904Z,116.13
2024-02-09T05:50:33.437Z,44.10
2024-02-09T05:51:41.881Z,118.88
2024-02-09T05:52:44.030Z,101.38
2024-02-09T05:53:48.317Z,72.03
2024-02-09T05:54:50.410Z,131.65
2024-02-09T05:55:52.943Z,270.55
2024-02-09T05:56:54.886Z,77.30
2024-02-09T05:57:56.936Z,55.13
2024-02-09T05:59:00.912Z,212.93
2024-02-09T06:00:03.241Z,76.13
2024-02-09T06:01:06.414Z,48.95
2024-02-09T06:02:08.464Z,72.18
2024-02-09T06:03:11.252Z,102.68
2024-02-09T06:04:15.646Z,44.40
2024-02-09T06:05:18.340Z,74.25
2024-02-09T06:06:22.885Z,97.60
2024-02-09T06:07:29.537Z,73.20
2024-02-09T06:08:31.652Z,47.58
2024-02-09T06:09:37.456Z,54.47
2024-02-09T06:10:39.993Z,57.78
2024-02-09T06:11:42.060Z,73.22
2024-02-09T06:12:46.909Z,77.65
2024-02-09T06:13:49.707Z,28.00
2024-02-09T06:14:55.137Z,80.50
2024-02-09T06:15:59.328Z,93.95
2024-02-09T06:17:01.354Z,32.75
2024-02-09T06:18:06.941Z,62.13
2024-02-09T06:19:09.392Z,63.90
2024-02-09T06:20:12.246Z,21.48
2024-02-09T06:21:20.470Z,67.57
2024-02-09T06:22:22.612Z,83.50
2024-02-09T06:23:27.684Z,57.47
2024-02-09T06:24:29.665Z,48.13
2024-02-09T06:25:32.160Z,93.78
2024-02-09T06:26:35.836Z,38.72
2024-02-09T06:27:37.734Z,28.95
2024-02-09T06:28:40.021Z,20.25
2024-02-09T06:29:42.741Z,56.03
2024-02-09T06:30:49.092Z,77.47
2024-02-09T06:31:58.347Z,72.75
2024-02-09T06:33:00.590Z,85.55
2024-02-09T06:34:03.238Z,139.23
2024-02-09T06:35:06.177Z,124.18
2024-02-09T06:36:09.015Z,79.22
2024-02-09T06:37:11.168Z,62.25
2024-02-09T06:38:13.487Z,70.40
2024-02-09T06:39:16.630Z,106.03
2024-02-09T06:40:19.287Z,55.20
2024-02-09T06:41:21.260Z,79.70
2024-02-09T06:42:23.596Z,29.77
2024-02-09T06:43:25.575Z,130.90
2024-02-09T06:44:28.009Z,64.93
2024-02-09T06:45:30.131Z,73.22
2024-02-09T06:46:32.161Z,14.98
2024-02-09T06:47:34.960Z,57.10
2024-02-09T06:48:37.052Z,75.78
2024-02-09T06:49:39.239Z,69.47
2024-02-09T06:50:42.085Z,75.35
2024-02-09T06:51:46.025Z,65.30
2024-02-09T06:52:50.994Z,118.22
2024-02-09T06:53:56.443Z,95.38
2024-02-09T06:54:59.020Z,36.38
2024-02-09T06:56:01.499Z,130.60
2024-02-09T06:57:03.818Z,52.15
2024-02-09T06:58:06.251Z,53.20
2024-02-09T06:59:11.261Z,69.75
2024-02-09T07:00:17.882Z,43.93
2024-02-09T07:01:20.561Z,64.82
2024-02-09T07:02:22.915Z,21.13
2024-02-09T07:03:27.302Z,33.00
2024-02-09T07:04:29.489Z,51.00
2024-02-09T07:05:31.864Z,42.50
2024-02-09T07:06:34.402Z,52.35
2024-02-09T07:07:40.005Z,44.35
2024-02-09T07:08:42.246Z,38.95
2024-02-09T07:09:44.526Z,74.20
2024-02-09T07:10:47.041Z,38.85
2024-02-09T07:11:49.538Z,30.52
2024-02-09T07:12:56.005Z,62.63
2024-02-09T07:13:57.964Z,23.88
2024-02-09T07:14:59.929Z,15.25
2024-02-09T07:16:04.285Z,86.55
2024-02-09T07:17:06.438Z,67.50
2024-02-09T07:18:08.453Z,41.73
2024-02-09T07:19:11.061Z,13.93
2024-02-09T07:20:18.239Z,49.67
2024-02-09T07:21:21.709Z,32.67
2024-02-09T07:22:23.731Z,26.50
2024-02-09T07:23:29.416Z,19.27
2024-02-09T07:24:31.524Z,52.53
2024-02-09T07:25:34.283Z,30.85
2024-02-09T07:26:36.787Z,14.32
2024-02-09T07:27:38.857Z,35.90
2024-02-09T07:28:42.489Z,17.38
2024-02-09T07:29:47.719Z,40.45
2024-02-09T07:30:49.943Z,18.88
2024-02-09T07:31:52.034Z,24.85
2024-02-09T07:32:54.229Z,76.45
2024-02-09T07:33:57.042Z,74.10
2024-02-09T07:34:59.361Z,31.17
2024-02-09T07:36:02.262Z,54.38
2024-02-09T07:37:04.834Z,53.13
2024-02-09T07:38:06.903Z,28.23
2024-02-09T07:39:08.994Z,61.38
2024-02-09T07:40:11.707Z,42.58
2024-02-09T07:41:14.361Z,30.65
2024-02-09T07:42:18.790Z,30.73
2024-02-09T07:43:22.213Z,46.03
2024-02-09T07:44:24.232Z,20.40
2024-02-09T07:45:26.292Z,17.83
2024-02-09T07:46:28.592Z,15.73
2024-02-09T07:47:30.948Z,56.83
2024-02-09T07:48:33.372Z,27.70
2024-02-09T07:49:35.965Z,47.08
2024-02-09T07:50:42.076Z,43.60
2024-02-09T07:51:44.551Z,42.00
2024-02-09T07:52:46.894Z,32.22
2024-02-09T07:53:55.088Z,38.10
2024-02-09T07:54:58.121Z,52.65
2024-02-09T07:56:00.951Z,27.85
2024-02-09T07:57:03.237Z,53.58
2024-02-09T07:58:05.370Z,24.20
2024-02-09T07:59:07.591Z,22.42
2024-02-09T08:00:11.257Z,31.15
2024-02-09T08:01:14.363Z,16.88
2024-02-09T08:02:16.447Z,21.40
2024-02-09T08:03:21.354Z,80.28
2024-02-09T08:04:27.110Z,32.70
2024-02-09T08:05:29.270Z,13.85
2024-02-09T08:06:31.376Z,71.07
2024-02-09T08:07:33.666Z,19.77
2024-02-09T08:08:35.696Z,53.93
2024-02-09T08:09:38.054Z,77.10
2024-02-09T08:10:40.122Z,45.30
2024-02-09T08:11:43.422Z,21.92
2024-02-09T08:12:48.590Z,50.45
2024-02-09T08:13:54.200Z,18.08
2024-02-09T08:14:57.483Z,20.13
2024-02-09T08:15:59.564Z,25.48
2024-02-09T08:17:01.588Z,30.73
2024-02-09T08:18:03.580Z,22.23
2024-02-09T08:19:05.772Z,36.83
2024-02-09T08:20:08.605Z,29.95
2024-02-09T08:21:10.748Z,54.35
2024-02-09T08:22:12.694Z,19.08
2024-02-09T08:23:14.678Z,19.90
2024-02-09T08:24:19.954Z,24.25
2024-02-09T08:25:22.093Z,33.00
2024-02-09T08:26:25.303Z,21.10
2024-02-09T08:27:28.584Z,15.88
2024-02-09T08:28:30.509Z,19.67
2024-02-09T08:29:33.965Z,16.55
2024-02-09T08:30:36.728Z,16.25
2024-02-09T08:31:38.769Z,37.65
2024-02-09T08:32:43.266Z,18.90
2024-02-09T08:33:48.100Z,32.08
2024-02-09T08:34:52.087Z,17.85
2024-02-09T08:35:54.156Z,16.77
2024-02-09T08:36:56.532Z,14.43
2024-02-09T08:37:58.691Z,58.50
2024-02-09T08:39:00.729Z,15.87
2024-02-09T08:40:04.853Z,17.67
2024-02-09T08:41:08.050Z,18.33
2024-02-09T08:42:10.147Z,19.58
2024-02-09T08:43:12.270Z,63.40
2024-02-09T08:44:14.727Z,52.53
2024-02-09T08:45:17.018Z,40.80
2024-02-09T08:46:19.159Z,15.30
2024-02-09T08:47:23.977Z,30.90
2024-02-09T08:48:26.161Z,29.85
2024-02-09T08:49:28.490Z,31.13
2024-02-09T08:50:30.539Z,19.58
2024-02-09T08:51:32.588Z,20.27
2024-02-09T08:52:34.747Z,49.95
2024-02-09T08:53:36.863Z,27.33
2024-02-09T08:54:39.127Z,36.22
2024-02-09T08:55:41.162Z,51.92
2024-02-09T08:56:43.285Z,19.35
2024-02-09T08:57:45.733Z,19.48
2024-02-09T08:58:49.017Z,40.00
2024-02-09T08:59:51.229Z,11.73
2024-02-09T09:01:00.614Z,20.63
2024-02-09T09:02:07.135Z,17.88
2024-02-09T09:03:09.236Z,43.60
2024-02-09T09:04:13.081Z,13.95
2024-02-09T09:05:17.450Z,17.60
2024-02-09T09:06:19.842Z,22.55
2024-02-09T09:07:21.959Z,28.17
2024-02-09T09:08:26.221Z,43.63
2024-02-09T09:09:28.301Z,31.83
2024-02-09T09:10:30.338Z,22.20
2024-02-09T09:11:32.427Z,35.08
2024-02-09T09:12:36.982Z,19.63
2024-02-09T09:13:39.007Z,85.13
2024-02-09T09:14:41.789Z,44.47
2024-02-09T09:15:43.833Z,22.95
2024-02-09T09:16:46.107Z,63.22
2024-02-09T09:36:22.330Z,10.82
2024-02-09T09:37:24.302Z,30.10
2024-02-09T09:47:01.931Z,21.02
2024-02-09T09:48:08.456Z,16.52
2024-02-09T09:49:13.770Z,29.10
2024-02-09T09:50:17.592Z,22.48
2024-02-09T09:51:21.946Z,35.53
2024-02-09T09:52:32.640Z,16.05
2024-02-09T09:53:40.760Z,15.20
2024-02-09T09:54:44.197Z,17.67
2024-02-09T09:55:48.363Z,11.77
2024-02-09T09:56:51.473Z,21.03
2024-02-09T09:57:54.757Z,12.10
2024-02-09T09:58:58.911Z,16.60
2024-02-09T10:00:01.221Z,20.90
2024-02-09T10:01:12.480Z,14.20
2024-02-09T10:02:15.957Z,16.88
2024-02-09T10:03:20.339Z,21.33
2024-02-09T10:04:23.653Z,16.23
2024-02-09T10:05:30.912Z,22.40
2024-02-09T10:06:33.732Z,12.23
2024-02-09T10:07:41.222Z,12.07
2024-02-09T10:08:43.475Z,11.90
2024-02-09T10:09:45.977Z,14.25
2024-02-09T10:10:49.742Z,14.38
2024-02-09T10:11:53.373Z,15.35
2024-02-09T10:13:07.868Z,17.40
2024-02-09T10:14:15.769Z,13.95
2024-02-09T10:15:18.256Z,12.30
2024-02-09T10:16:23.570Z,19.33
2024-02-09T10:17:25.718Z,13.20
2024-02-09T10:18:28.097Z,13.53
2024-02-09T10:19:34.892Z,13.43
2024-02-09T10:20:41.559Z,15.95
2024-02-09T10:21:50.678Z,11.93
2024-02-09T10:22:59.061Z,22.90
2024-02-09T10:24:01.227Z,12.88
2024-02-09T10:25:04.318Z,13.60
2024-02-09T10:26:07.599Z,10.45
2024-02-09T10:27:11.820Z,17.90
2024-02-09T10:28:15.627Z,17.55
2024-02-09T10:29:22.646Z,13.97
2024-02-09T10:30:27.136Z,10.18
2024-02-09T10:31:30.800Z,12.70
2024-02-09T10:32:33.924Z,17.70
2024-02-09T10:33:38.801Z,12.20
2024-02-09T10:34:41.634Z,10.70
2024-02-09T10:35:45.422Z,9.93
2024-02-09T10:36:49.605Z,13.38
2024-02-09T10:37:52.485Z,13.70
2024-02-09T10:38:56.609Z,13.10
2024-02-09T10:40:01.954Z,8.23
2024-02-09T10:41:07.181Z,9.23
2024-02-09T10:42:10.553Z,19.30
2024-02-09T10:43:14.297Z,17.20
2024-02-09T10:44:17.532Z,12.40
2024-02-09T10:45:22.170Z,17.88
2024-02-09T10:46:28.330Z,13.70
2024-02-09T10:47:31.646Z,28.75
2024-02-09T10:48:39.899Z,15.13
2024-02-09T10:49:48.282Z,12.05
2024-02-09T10:50:56.424Z,10.00
2024-02-09T10:52:06.196Z,9.65
2024-02-09T10:53:13.682Z,7.45
2024-02-09T10:54:25.304Z,16.98
2024-02-09T10:55:42.027Z,14.48
2024-02-09T10:56:45.564Z,9.45
2024-02-09T10:57:55.572Z,10.57
2024-02-09T10:58:58.268Z,11.02
2024-02-09T11:00:02.758Z,10.35
2024-02-09T11:01:06.424Z,11.90
2024-02-09T11:02:12.842Z,12.27
2024-02-09T11:03:15.679Z,14.60
2024-02-09T11:04:18.418Z,9.80
2024-02-09T11:05:20.846Z,36.40
2024-02-09T11:06:26.143Z,11.38
2024-02-09T11:07:29.848Z,10.23
2024-02-09T11:08:36.329Z,14.55
2024-02-09T11:09:41.009Z,11.52
2024-02-09T11:10:43.830Z,13.40
2024-02-09T11:11:49.477Z,10.05
2024-02-09T11:12:59.282Z,14.93
2024-02-09T11:14:13.755Z,11.88
2024-02-09T11:15:17.081Z,12.63
2024-02-09T11:16:26.858Z,10.23
2024-02-09T11:17:29.650Z,13.32
2024-02-09T11:18:38.814Z,9.18
2024-02-09T11:19:43.499Z,11.75
2024-02-09T11:20:45.974Z,11.07
2024-02-09T11:21:59.107Z,19.77
2024-02-09T11:23:02.369Z,16.02
2024-02-09T11:24:05.078Z,11.07
2024-02-09T11:25:10.671Z,10.32
2024-02-09T11:26:15.585Z,11.93
2024-02-09T11:27:22.222Z,13.27
2024-02-09T11:28:24.580Z,15.48
2024-02-09T11:29:27.197Z,14.23
2024-02-09T11:30:32.477Z,11.73
2024-02-09T11:31:35.302Z,17.27
2024-02-09T11:32:38.893Z,21.83
2024-02-09T11:33:43.382Z,13.90
2024-02-09T11:34:50.471Z,18.53
2024-02-09T11:35:59.474Z,42.00
2024-02-09T11:37:03.304Z,18.05
2024-02-09T11:38:07.124Z,58.80
2024-02-09T11:39:11.290Z,66.15
2024-02-09T11:40:15.756Z,16.75
2024-02-09T11:41:18.077Z,29.60
2024-02-09T11:42:31.057Z,23.40
2024-02-09T11:43:37.469Z,28.02
2024-02-09T11:44:43.186Z,23.77
2024-02-09T11:45:48.682Z,25.40
2024-02-09T11:46:54.724Z,13.15
2024-02-09T11:47:58.708Z,17.67
2024-02-09T11:49:01.054Z,26.77
2024-02-09T11:50:03.132Z,34.15
2024-02-09T11:51:07.109Z,17.13
2024-02-09T11:52:12.023Z,13.88
2024-02-09T11:53:14.714Z,23.35
2024-02-09T11:54:17.768Z,11.70
2024-02-09T11:55:20.332Z,14.68
2024-02-09T11:56:22.536Z,11.10
2024-02-09T11:57:26.613Z,11.23
2024-02-09T11:58:33.326Z,9.65
2024-02-09T11:59:35.318Z,12.80
2024-02-09T12:00:40.339Z,18.40
2024-02-09T12:01:44.538Z,9.55
2024-02-09T12:02:48.299Z,11.60
2024-02-09T12:03:51.338Z,10.73
2024-02-09T12:04:53.925Z,13.25
2024-02-09T12:05:58.183Z,13.18
2024-02-09T12:07:00.946Z,10.13
2024-02-09T12:08:03.279Z,9.07
2024-02-09T12:09:05.728Z,23.48
2024-02-09T12:10:08.227Z,11.02
2024-02-09T12:11:10.460Z,12.68
2024-02-09T12:12:12.548Z,10.30
2024-02-09T12:13:14.858Z,9.32
2024-02-09T12:14:17.010Z,13.15
2024-02-09T12:15:22.099Z,15.20
2024-02-09T12:16:24.523Z,10.82
2024-02-09T12:17:28.551Z,11.80
2024-02-09T12:18:33.276Z,10.20
2024-02-09T12:19:37.010Z,14.73
2024-02-09T12:20:39.618Z,48.55
2024-02-09T12:21:42.405Z,13.05
2024-02-09T12:22:47.310Z,11.13
2024-02-09T12:24:06.282Z,12.80
2024-02-09T12:25:12.953Z,10.40
2024-02-09T12:26:20.585Z,17.67
2024-02-09T12:27:23.259Z,14.00
2024-02-09T12:28:26.100Z,7.03
2024-02-09T12:29:29.428Z,13.27
2024-02-09T12:30:33.381Z,8.38
2024-02-09T12:31:37.865Z,9.27
2024-02-09T12:32:41.982Z,10.40
2024-02-09T12:33:45.923Z,13.05
2024-02-09T12:34:51.335Z,49.63
2024-02-09T12:35:54.091Z,12.30
2024-02-09T12:37:01.079Z,9.38
2024-02-09T12:38:05.384Z,28.65
2024-02-09T12:39:09.225Z,11.03
2024-02-09T12:40:18.168Z,8.65
2024-02-09T12:41:20.485Z,12.80
2024-02-09T12:42:26.513Z,25.45
2024-02-09T12:43:28.491Z,24.70
2024-02-09T12:44:32.058Z,11.68
2024-02-09T12:45:34.176Z,13.95
2024-02-09T12:46:36.811Z,15.68
2024-02-09T12:47:40.032Z,7.88
2024-02-09T12:48:42.648Z,9.55
2024-02-09T12:49:45.507Z,10.03
2024-02-09T12:50:56.402Z,41.58
2024-02-09T12:52:01.071Z,14.18
2024-02-09T12:53:05.267Z,15.35
2024-02-09T12:54:09.109Z,29.30
2024-02-09T12:55:11.678Z,9.43
2024-02-09T12:56:13.514Z,11.43
2024-02-09T12:57:16.114Z,12.85
2024-02-09T12:58:20.960Z,8.88
2024-02-09T12:59:24.731Z,11.70
2024-02-09T13:00:26.869Z,26.73
2024-02-09T13:01:31.336Z,15.48
2024-02-09T13:02:34.074Z,17.60
2024-02-09T13:03:36.893Z,10.32
2024-02-09T13:04:40.882Z,12.75
2024-02-09T13:05:43.425Z,9.70
2024-02-09T13:06:45.574Z,12.30
2024-02-09T13:07:48.159Z,11.82
2024-02-09T13:08:51.226Z,8.80
2024-02-09T13:09:53.340Z,12.20
2024-02-09T13:10:55.464Z,10.23
2024-02-09T13:11:57.708Z,12.32
2024-02-09T13:13:07.275Z,12.75
2024-02-09T13:14:09.911Z,10.10
2024-02-09T13:15:17.380Z,10.30
2024-02-09T13:16:19.823Z,11.82
2024-02-09T13:17:22.885Z,14.18
2024-02-09T13:18:25.517Z,8.55
2024-02-09T13:19:27.734Z,16.33
2024-02-09T13:20:30.520Z,12.25
2024-02-09T13:21:33.209Z,22.43
2024-02-09T13:22:39.111Z,7.47
2024-02-09T13:23:42.243Z,8.32
2024-02-09T13:24:44.270Z,7.78
2024-02-09T13:25:46.293Z,6.65
2024-02-09T13:26:51.907Z,10.90
2024-02-09T13:28:00.730Z,8.00
2024-02-09T13:29:04.640Z,11.40
2024-02-09T13:30:09.953Z,9.80
2024-02-09T13:31:12.736Z,10.63
2024-02-09T13:32:17.947Z,10.73
2024-02-09T13:33:20.415Z,7.80
2024-02-09T13:34:23.427Z,6.93
2024-02-09T13:35:25.654Z,9.70
2024-02-09T13:36:28.667Z,10.75
2024-02-09T13:37:35.318Z,9.65
2024-02-09T13:38:37.749Z,15.70
2024-02-09T13:39:40.514Z,7.85
2024-02-09T13:40:43.887Z,11.95
2024-02-09T13:41:46.798Z,10.75
2024-02-09T13:42:51.401Z,12.77
2024-02-09T13:43:55.427Z,21.35
2024-02-09T13:45:01.173Z,8.10
2024-02-09T13:46:07.134Z,13.57
2024-02-09T13:47:10.271Z,29.90
2024-02-09T13:48:12.761Z,8.02
2024-02-09T13:49:15.020Z,12.38
2024-02-09T13:50:17.310Z,9.15
2024-02-09T13:51:20.709Z,11.15
2024-02-09T13:52:22.747Z,10.98
2024-02-09T13:53:24.833Z,19.93
2024-02-09T13:54:33.317Z,12.55
2024-02-09T13:55:36.971Z,13.10
2024-02-09T13:56:41.421Z,21.98
2024-02-09T13:57:49.776Z,10.93
2024-02-09T13:58:52.984Z,15.20
2024-02-09T13:59:55.397Z,9.15
2024-02-09T14:00:59.089Z,10.60
2024-02-09T14:02:01.941Z,12.23
2024-02-09T14:03:04.257Z,61.15
2024-02-09T14:04:08.455Z,9.07
2024-02-09T14:05:11.002Z,8.60
2024-02-09T14:06:13.839Z,11.25
2024-02-09T14:07:16.500Z,8.10
2024-02-09T14:08:21.422Z,7.75
2024-02-09T14:09:23.524Z,8.32
2024-02-09T14:10:25.621Z,14.63
2024-02-09T14:11:29.040Z,13.68
2024-02-09T14:12:31.716Z,11.82
2024-02-09T14:13:33.812Z,9.45
2024-02-09T14:14:36.215Z,11.10
2024-02-09T14:15:38.247Z,19.70
2024-02-09T14:16:40.605Z,10.50
2024-02-09T14:17:42.887Z,13.05
2024-02-09T14:18:47.173Z,13.43
2024-02-09T14:19:49.149Z,12.82
2024-02-09T14:20:51.757Z,15.70
2024-02-09T14:21:53.718Z,18.75
2024-02-09T14:22:56.090Z,10.25
2024-02-09T14:23:58.634Z,21.55